KLWV/LWV METAR and TAF weather

Enter ICAO airport designator
Station Type Date Time Source
KLWV METAR 2019/10/15 18:53 UTC NOAA

KLWV 151853Z AUTO 22010KT 10SM -RA OVC028 21/13 A2988 RMK AO2 RAB1754E09B53 SLP118 P0000 T02110128 $


Station Type Date Time Source
KLWV Decoded METAR 2019/10/15 18:53 UTC NOAA

LAWRENCEVILLE-VINCENNES INTERNATIONAL , IL, United States (KLWV) 38-46N 87-36W 131M
Oct 15, 2019 - 02:53 PM EDT / 2019.10.15 1853 UTC
Wind: from the SW (220 degrees) at 12 MPH (10 KT):0
Visibility: 10 mile(s):0
Sky conditions: overcast
Weather: light rain
Precipitation last hour: A trace
Temperature: 70.0 F (21.1 C)
Dew Point: 55.0 F (12.8 C)
Relative Humidity: 59%
Pressure (altimeter): 29.88 in. Hg (1011 hPa)
ob: KLWV 151853Z AUTO 22010KT 10SM -RA OVC028 21/13 A2988 RMK AO2 RAB1754E09B53 SLP118 P0000 T02110128
cycle: 19

Station Type Date Time Source
KLWV TAF UTC NOAA

Error!

Example: see airport list